Time;durP1;ratioP1;P1;durP2;ratioP2;P2;SDS_P1;SDS_P2;PMS_P1;PMS_P2;Temp;Humidity;BMP_temperature;BMP_pressure;BME280_temperature;BME280_humidity;BME280_pressure;Samples;Min_cycle;Max_cycle;Signal;HPM_P1;HPM_P2
2023/06/01 00:01:04;;;;;;;4.47;2.35;;;;;;;21.10;40.38;100106.16;4949435;28;20051;-86
2023/06/01 00:03:30;;;;;;;4.80;2.30;;;;;;;21.10;40.37;100101.56;4971321;28;20050;-87
2023/06/01 00:05:57;;;;;;;4.68;2.10;;;;;;;21.12;40.36;100104.09;4945279;28;20050;-85
2023/06/01 00:08:24;;;;;;;6.07;2.22;;;;;;;21.09;40.56;100107.16;4965968;28;20082;-87
2023/06/01 00:10:52;;;;;;;5.93;2.33;;;;;;;21.07;40.98;100101.97;4951808;28;20076;-85
2023/06/01 00:13:19;;;;;;;6.85;2.42;;;;;;;21.08;40.62;100108.22;4984947;28;20053;-86
2023/06/01 00:15:46;;;;;;;8.15;2.05;;;;;;;21.06;40.81;100094.91;4982768;28;20055;-87
2023/06/01 00:18:15;;;;;;;6.30;2.30;;;;;;;21.07;40.59;100101.16;4985526;28;20054;-86
2023/06/01 00:20:42;;;;;;;6.20;2.00;;;;;;;21.04;40.60;100102.38;4983258;28;20073;-86
2023/06/01 00:23:10;;;;;;;5.00;2.70;;;;;;;21.00;41.25;100093.81;4959592;28;20491;-86
2023/06/01 00:25:37;;;;;;;2.80;2.10;;;;;;;20.99;41.40;100100.28;4962554;28;20061;-86
2023/06/01 00:28:03;;;;;;;2.78;2.17;;;;;;;20.94;41.73;100093.78;4968008;28;20050;-86
2023/06/01 00:30:30;;;;;;;3.63;2.17;;;;;;;20.92;41.26;100099.38;4981181;28;20133;-86
2023/06/01 00:32:57;;;;;;;4.95;2.15;;;;;;;20.94;41.45;100097.31;4955964;28;20458;-86
2023/06/01 00:35:24;;;;;;;3.65;2.10;;;;;;;20.90;41.85;100096.03;4971035;28;20084;-86
2023/06/01 00:37:51;;;;;;;4.22;2.28;;;;;;;20.91;41.88;100089.59;4945364;28;20051;-86
2023/06/01 00:40:19;;;;;;;6.57;2.67;;;;;;;20.93;41.17;100095.63;4926443;28;20710;-87
2023/06/01 00:42:46;;;;;;;3.00;2.15;;;;;;;20.91;41.29;100086.91;4938221;28;20121;-87
2023/06/01 00:45:14;;;;;;;6.68;2.28;;;;;;;20.90;41.04;100082.53;4956502;28;20142;-87
2023/06/01 00:47:43;;;;;;;4.95;2.15;;;;;;;20.92;40.85;100083.19;4921830;28;20265;-86
2023/06/01 00:50:12;;;;;;;8.98;2.55;;;;;;;20.90;40.94;100084.41;4937688;28;20047;-87
2023/06/01 00:52:40;;;;;;;5.53;2.30;;;;;;;20.90;40.91;100079.03;4924566;28;20051;-87
2023/06/01 00:55:07;;;;;;;4.50;2.40;;;;;;;20.92;41.09;100085.88;4949573;28;20055;-87
2023/06/01 00:57:35;;;;;;;6.28;1.98;;;;;;;20.86;40.66;100086.66;4914904;28;20514;-86
2023/06/01 01:00:10;;;;;;;4.38;1.85;;;;;;;20.89;40.70;100086.28;4921527;28;20105;-87
2023/06/01 01:02:38;;;;;;;3.80;2.08;;;;;;;20.92;40.99;100085.88;4948218;28;20057;-87
2023/06/01 01:05:09;;;;;;;4.40;2.17;;;;;;;20.87;41.02;100085.63;4926390;28;20113;-87
2023/06/01 01:07:54;;;;;;;3.15;2.05;;;;;;;20.61;43.00;100088.97;4923632;28;20521;-86
2023/06/01 01:10:47;;;;;;;3.97;2.17;;;;;;;20.65;42.57;100084.84;4936179;28;20421;-86
2023/06/01 01:13:23;;;;;;;;;;;;;;;20.20;44.43;100086.91;4950108;28;20049;-87
2023/06/01 01:15:55;;;;;;;4.70;1.95;;;;;;;20.40;43.62;100087.09;4942888;28;19920;-87
2023/06/01 01:19:00;;;;;;;5.10;2.03;;;;;;;20.16;44.94;100088.31;4947501;28;20047;-87
2023/06/01 01:21:31;;;;;;;4.03;2.22;;;;;;;20.31;44.03;100096.34;4954485;28;20051;-87
2023/06/01 01:24:16;;;;;;;4.53;2.43;;;;;;;20.09;45.19;100085.53;4937954;28;20588;-87
2023/06/01 01:26:52;;;;;;;4.22;2.28;;;;;;;20.17;44.09;100090.84;4927156;28;20046;-86
2023/06/01 01:29:20;;;;;;;2.95;1.95;;;;;;;20.13;44.22;100084.16;4931783;28;20047;-87
2023/06/01 01:31:49;;;;;;;3.30;2.28;;;;;;;20.16;44.29;100088.31;4926416;28;20062;-86
2023/06/01 01:34:18;;;;;;;3.75;2.05;;;;;;;20.10;44.54;100087.22;4936672;28;20047;-87
2023/06/01 01:36:45;;;;;;;3.17;2.22;;;;;;;20.08;44.23;100081.19;4916890;28;20046;-87
2023/06/01 01:39:11;;;;;;;6.47;2.00;;;;;;;20.13;44.21;100091.41;4932590;28;20425;-86
2023/06/01 01:41:38;;;;;;;4.40;2.20;;;;;;;20.08;44.52;100091.16;4940731;28;20054;-86
2023/06/01 01:44:05;;;;;;;5.15;2.40;;;;;;;20.07;44.49;100079.50;4957233;28;20595;-87
2023/06/01 01:46:38;;;;;;;3.10;2.13;;;;;;;20.05;44.62;100081.56;4933686;28;20051;-86
2023/06/01 01:49:22;;;;;;;7.68;2.40;;;;;;;19.95;45.19;100081.88;4957650;28;20468;-86
2023/06/01 01:52:12;;;;;;;5.88;2.30;;;;;;;19.81;44.80;100071.13;4934436;28;20051;-87
2023/06/01 01:54:44;;;;;;;5.80;2.30;;;;;;;19.89;44.89;100079.94;4936188;28;20607;-86
2023/06/01 01:57:16;;;;;;;3.47;2.00;;;;;;;19.91;45.19;100077.88;4938458;28;20496;-87
2023/06/01 01:59:45;;;;;;;5.47;1.83;;;;;;;19.97;44.33;100070.91;4931391;28;20051;-87
2023/06/01 02:02:12;;;;;;;5.32;1.92;;;;;;;19.91;44.42;100072.50;4929922;28;20352;-87
2023/06/01 02:04:41;;;;;;;3.60;2.10;;;;;;;19.91;44.81;100068.97;4933816;28;20387;-87
2023/06/01 02:07:08;;;;;;;3.97;2.55;;;;;;;19.90;44.68;100061.94;4921442;28;20047;-87
2023/06/01 02:09:36;;;;;;;4.28;1.95;;;;;;;19.93;44.39;100070.44;4921472;28;20074;-86
2023/06/01 02:12:05;;;;;;;5.28;2.40;;;;;;;19.87;44.99;100067.66;4956093;28;20055;-86
2023/06/01 02:14:34;;;;;;;3.45;2.45;;;;;;;19.81;45.97;100065.75;4937226;28;20130;-86
2023/06/01 02:17:01;;;;;;;6.60;2.03;;;;;;;19.83;46.03;100069.09;4930271;28;20063;-86
2023/06/01 02:19:28;;;;;;;4.10;1.95;;;;;;;19.82;45.58;100067.41;4938203;28;20054;-86
2023/06/01 02:21:55;;;;;;;4.70;2.30;;;;;;;19.75;45.63;100066.53;4960023;28;20431;-86
2023/06/01 02:24:22;;;;;;;4.45;2.30;;;;;;;19.72;45.56;100060.47;4962800;28;20490;-87
2023/06/01 02:26:52;;;;;;;3.88;2.30;;;;;;;19.67;45.93;100067.47;4973539;28;20050;-87
2023/06/01 02:29:21;;;;;;;4.32;2.10;;;;;;;19.68;45.83;100069.97;4933424;28;20065;-86
2023/06/01 02:31:50;;;;;;;4.38;2.30;;;;;;;19.64;45.95;100063.25;4931727;28;20054;-85
2023/06/01 02:34:18;;;;;;;5.78;2.33;;;;;;;19.69;45.90;100063.56;4947131;28;20118;-87
2023/06/01 02:36:46;;;;;;;6.00;2.53;;;;;;;19.68;45.91;100064.56;4953497;28;20054;-87
2023/06/01 02:39:14;;;;;;;4.25;2.10;;;;;;;19.65;45.81;100058.72;4955294;28;20051;-88
2023/06/01 02:41:41;;;;;;;4.65;2.05;;;;;;;19.65;46.00;100053.31;4936820;28;20418;-86
2023/06/01 02:44:08;;;;;;;6.95;2.60;;;;;;;19.65;45.81;100056.84;4907988;28;20062;-86
2023/06/01 02:46:35;;;;;;;3.80;2.03;;;;;;;19.63;45.72;100053.50;4924950;28;20128;-86
2023/06/01 02:49:03;;;;;;;8.55;2.38;;;;;;;19.63;45.51;100056.19;4951317;28;20981;-87
2023/06/01 02:51:34;;;;;;;5.45;2.13;;;;;;;19.63;45.41;100052.66;4971302;28;20053;-86
2023/06/01 02:54:21;;;;;;;4.22;2.60;;;;;;;19.57;45.42;100054.25;4970680;28;20057;-87
2023/06/01 02:56:49;;;;;;;5.05;2.08;;;;;;;19.62;45.68;100056.41;4979360;28;20050;-88
2023/06/01 02:59:19;;;;;;;3.28;2.08;;;;;;;19.57;46.01;100048.06;4938196;28;20057;-87
2023/06/01 03:01:51;;;;;;;3.78;2.60;;;;;;;19.47;46.28;100059.13;4945386;28;20042;-87
2023/06/01 03:04:18;;;;;;;8.15;2.55;;;;;;;19.45;46.44;100053.91;4961372;28;20085;-87
2023/06/01 03:06:46;;;;;;;3.05;1.90;;;;;;;19.39;47.07;100065.44;4952790;28;20222;-86
2023/06/01 03:09:13;;;;;;;3.78;2.28;;;;;;;19.32;47.02;100056.44;4974236;28;20073;-86
2023/06/01 03:12:04;;;;;;;3.88;2.35;;;;;;;19.35;47.04;100052.53;4956669;28;20230;-88
2023/06/01 03:14:32;;;;;;;5.75;2.25;;;;;;;19.24;47.17;100051.16;4935074;28;20043;-87
2023/06/01 03:17:00;;;;;;;4.53;2.15;;;;;;;19.24;47.36;100048.47;4942770;28;20060;-89
2023/06/01 03:19:27;;;;;;;3.47;2.55;;;;;;;19.28;47.30;100058.69;4957732;28;20042;-88
2023/06/01 03:21:57;;;;;;;5.80;2.63;;;;;;;19.21;47.52;100063.13;4962611;28;20432;-88
2023/06/01 03:24:26;;;;;;;5.72;2.50;;;;;;;19.18;47.60;100066.16;4912280;28;20046;-87
2023/06/01 03:26:53;;;;;;;3.85;2.67;;;;;;;19.13;47.64;100057.00;4942412;28;20047;-88
2023/06/01 03:29:21;;;;;;;2.78;2.10;;;;;;;19.05;47.82;100057.91;4935799;28;20531;-87
2023/06/01 03:31:48;;;;;;;7.65;2.60;;;;;;;19.09;47.60;100062.75;4942760;28;20562;-86
2023/06/01 03:34:19;;;;;;;4.63;1.90;;;;;;;19.09;47.46;100061.91;4939109;28;20054;-87
2023/06/01 03:36:47;;;;;;;4.53;2.30;;;;;;;19.08;47.55;100061.09;4942708;28;20142;-87
2023/06/01 03:39:15;;;;;;;4.68;2.50;;;;;;;19.05;47.90;100060.59;4934250;28;20051;-86
2023/06/01 03:41:43;;;;;;;3.33;2.60;;;;;;;18.97;48.95;100063.41;4936398;28;20051;-85
2023/06/01 03:44:11;;;;;;;4.35;2.60;;;;;;;18.92;49.24;100068.50;4937126;28;20058;-85
2023/06/01 03:46:39;;;;;;;4.53;2.30;;;;;;;18.95;49.54;100066.25;4962460;28;20051;-85
2023/06/01 03:49:07;;;;;;;4.57;2.63;;;;;;;18.99;50.00;100064.88;4932987;28;20050;-86
2023/06/01 03:51:35;;;;;;;7.65;2.90;;;;;;;19.28;50.72;100066.75;4964177;28;20455;-86
2023/06/01 03:54:02;;;;;;;6.80;3.30;;;;;;;19.95;50.51;100068.41;4940727;28;20054;-86
2023/06/01 03:56:29;;;;;;;5.97;2.70;;;;;;;20.72;49.32;100063.31;4927856;28;20281;-86
2023/06/01 03:59:00;;;;;;;5.43;2.65;;;;;;;21.56;47.79;100063.19;4938726;28;20081;-87
2023/06/01 04:01:30;;;;;;;6.68;2.95;;;;;;;22.40;45.78;100072.78;4926248;28;20272;-87
2023/06/01 04:03:57;;;;;;;6.57;3.22;;;;;;;23.13;43.19;100053.78;4941650;28;20047;-87
2023/06/01 04:06:24;;;;;;;7.47;3.33;;;;;;;23.69;41.33;100049.63;4950142;28;20054;-88
2023/06/01 04:08:55;;;;;;;5.95;3.42;;;;;;;23.86;40.63;100054.56;4944762;28;20046;-88
2023/06/01 04:11:22;;;;;;;5.80;3.45;;;;;;;23.49;40.30;100055.13;4955830;28;20119;-85
2023/06/01 04:13:50;;;;;;;8.27;3.47;;;;;;;22.90;41.19;100062.34;4961026;28;20050;-84
2023/06/01 04:16:18;;;;;;;11.85;3.75;;;;;;;22.62;41.94;100067.16;4974835;28;20063;-87
2023/06/01 04:18:45;;;;;;;13.50;3.92;;;;;;;22.28;42.87;100059.03;4954327;28;20043;-85
2023/06/01 04:21:16;;;;;;;6.30;3.60;;;;;;;21.96;43.08;100067.91;4917856;28;20043;-86
2023/06/01 04:23:43;;;;;;;11.20;3.78;;;;;;;21.68;43.63;100072.41;4953800;28;20047;-86
2023/06/01 04:26:12;;;;;;;8.85;3.30;;;;;;;21.49;44.20;100069.63;4955276;28;20054;-86
2023/06/01 04:28:45;;;;;;;9.18;3.10;;;;;;;21.31;44.08;100073.66;4942647;28;20765;-86
2023/06/01 04:31:19;;;;;;;8.48;3.45;;;;;;;21.27;44.61;100069.69;4938380;28;20058;-86
2023/06/01 04:33:53;;;;;;;8.35;3.35;;;;;;;21.14;44.91;100077.69;4948506;28;20042;-87
2023/06/01 04:36:27;;;;;;;7.75;3.50;;;;;;;21.05;45.34;100079.75;4913094;28;20070;-86
2023/06/01 04:39:10;;;;;;;7.25;2.92;;;;;;;20.98;45.50;100079.69;4937400;28;20053;-88
2023/06/01 04:41:38;;;;;;;8.43;3.08;;;;;;;21.05;45.43;100087.84;4926663;28;20053;-88
2023/06/01 04:44:05;;;;;;;5.07;2.97;;;;;;;20.87;45.53;100079.41;4950153;28;20085;-88
2023/06/01 04:46:32;;;;;;;5.10;2.85;;;;;;;20.76;45.65;100084.31;4911994;28;20118;-87
2023/06/01 04:49:00;;;;;;;4.85;3.40;;;;;;;20.68;46.12;100086.31;4938484;28;20039;-88
2023/06/01 04:51:28;;;;;;;6.95;3.22;;;;;;;20.64;46.28;100088.59;4957591;28;20070;-87
2023/06/01 04:53:56;;;;;;;8.20;3.45;;;;;;;20.51;46.58;100083.88;4949746;28;20096;-87
2023/06/01 04:56:24;;;;;;;5.95;3.72;;;;;;;20.42;46.81;100087.72;4969004;28;20070;-88
2023/06/01 04:58:51;;;;;;;8.95;3.30;;;;;;;20.31;46.67;100091.78;4934636;28;20083;-87
2023/06/01 05:01:20;;;;;;;8.32;3.88;;;;;;;20.24;46.55;100080.09;4972970;28;20073;-88
2023/06/01 05:03:47;;;;;;;7.53;3.22;;;;;;;20.22;47.10;100092.94;4932171;28;20098;-88
2023/06/01 05:06:15;;;;;;;6.78;3.55;;;;;;;20.21;47.22;100093.13;4928132;28;20066;-88
2023/06/01 05:08:42;;;;;;;6.57;3.33;;;;;;;20.12;47.52;100087.03;4919692;28;20054;-88
2023/06/01 05:11:09;;;;;;;6.45;3.35;;;;;;;20.11;47.67;100093.44;4923157;28;20313;-87
2023/06/01 05:13:38;;;;;;;6.30;3.17;;;;;;;20.13;47.94;100088.72;4945331;28;20051;-87
2023/06/01 05:16:08;;;;;;;5.68;3.78;;;;;;;20.15;47.89;100086.66;4957884;28;20385;-88
2023/06/01 05:18:36;;;;;;;8.93;3.65;;;;;;;20.17;48.41;100088.13;4929738;28;20054;-88
2023/06/01 05:21:03;;;;;;;7.90;3.40;;;;;;;20.17;48.14;100090.84;4956163;28;20076;-88
2023/06/01 05:23:31;;;;;;;6.60;3.80;;;;;;;20.23;48.62;100097.31;4942320;28;20055;-87
2023/06/01 05:26:05;;;;;;;7.60;3.17;;;;;;;20.33;48.47;100097.00;4938462;28;20066;-87
2023/06/01 05:28:35;;;;;;;5.72;3.20;;;;;;;20.35;48.66;100103.88;4923336;28;20054;-88
2023/06/01 05:31:05;;;;;;;9.35;3.55;;;;;;;20.27;48.41;100095.06;4937012;28;20066;-88
2023/06/01 05:33:36;;;;;;;10.20;2.70;;;;;;;20.31;47.88;100099.03;4934872;28;20051;-88
2023/06/01 05:36:04;;;;;;;10.40;3.42;;;;;;;20.38;48.56;100095.38;4952356;28;20481;-88
2023/06/01 05:38:30;;;;;;;9.50;3.80;;;;;;;20.35;49.08;100090.38;4940458;28;20278;-88
2023/06/01 05:40:58;;;;;;;6.13;3.80;;;;;;;20.36;48.90;100086.66;4919126;28;20049;-87
2023/06/01 05:43:25;;;;;;;9.90;2.97;;;;;;;20.42;47.85;100090.44;4929061;28;20039;-87
2023/06/01 05:45:52;;;;;;;6.85;3.70;;;;;;;20.44;48.83;100098.34;4924506;28;20050;-88
2023/06/01 05:48:19;;;;;;;7.53;3.90;;;;;;;20.54;48.74;100096.16;4955685;28;20051;-88
2023/06/01 05:50:50;;;;;;;8.50;3.00;;;;;;;20.51;47.44;100093.84;4938877;28;20058;-88
2023/06/01 05:53:17;;;;;;;6.30;2.28;;;;;;;20.51;46.15;100088.44;4920985;28;20281;-88
2023/06/01 05:55:44;;;;;;;7.05;2.63;;;;;;;20.56;45.96;100091.44;4951771;28;20408;-88
2023/06/01 05:58:12;;;;;;;4.05;2.47;;;;;;;20.61;45.33;100088.97;4941174;28;20055;-87
2023/06/01 06:00:39;;;;;;;5.35;2.67;;;;;;;20.60;45.14;100085.41;4929342;28;20122;-88
2023/06/01 06:03:06;;;;;;;3.78;2.50;;;;;;;20.59;44.68;100082.94;4928661;28;20498;-89
2023/06/01 06:05:33;;;;;;;6.45;2.80;;;;;;;20.64;44.75;100093.16;4952242;28;20101;-87
2023/06/01 06:08:01;;;;;;;4.72;2.70;;;;;;;20.64;44.77;100096.69;4947096;28;20081;-88
2023/06/01 06:10:27;;;;;;;4.57;2.40;;;;;;;20.65;44.75;100087.53;4940131;28;20145;-88
2023/06/01 06:12:55;;;;;;;5.32;2.85;;;;;;;20.68;44.60;100092.53;4941876;28;20078;-87
2023/06/01 06:15:22;;;;;;;6.53;3.13;;;;;;;20.70;44.49;100084.25;4928503;28;20051;-87
2023/06/01 06:17:49;;;;;;;6.78;2.80;;;;;;;20.73;44.78;100083.88;4956933;28;20049;-88
2023/06/01 06:20:16;;;;;;;6.07;2.88;;;;;;;20.74;44.45;100082.84;4942442;28;20106;-87
2023/06/01 06:22:43;;;;;;;5.82;3.13;;;;;;;20.73;44.61;100076.59;4936567;28;20051;-87
2023/06/01 06:25:11;;;;;;;4.80;2.70;;;;;;;20.75;44.55;100084.50;4926076;28;20043;-86
2023/06/01 06:27:38;;;;;;;4.43;2.72;;;;;;;20.79;44.25;100086.63;4977806;28;20481;-87
2023/06/01 06:30:06;;;;;;;6.00;2.55;;;;;;;20.83;44.38;100086.22;4963282;28;20477;-85
2023/06/01 06:32:34;;;;;;;5.95;3.15;;;;;;;20.89;44.21;100080.03;4946803;28;20046;-86
2023/06/01 06:35:03;;;;;;;7.90;2.63;;;;;;;20.87;44.53;100077.53;4955654;28;20461;-87
2023/06/01 06:37:30;;;;;;;7.20;3.15;;;;;;;20.83;44.52;100073.56;4974450;28;20056;-87
2023/06/01 06:39:58;;;;;;;5.57;2.53;;;;;;;20.83;44.44;100078.13;4975989;28;20069;-87
2023/06/01 06:42:25;;;;;;;6.32;2.60;;;;;;;20.87;44.56;100079.41;4942924;28;20098;-87
2023/06/01 06:44:52;;;;;;;6.47;2.75;;;;;;;20.90;44.49;100090.63;4951544;28;20047;-87
2023/06/01 06:47:19;;;;;;;3.92;2.58;;;;;;;20.91;44.64;100080.66;4943693;28;20074;-86
2023/06/01 06:49:47;;;;;;;5.78;3.00;;;;;;;20.95;44.45;100081.97;4954147;28;20505;-87
2023/06/01 06:52:14;;;;;;;6.15;2.67;;;;;;;20.97;44.65;100083.44;4939230;28;20133;-87
2023/06/01 06:54:41;;;;;;;4.80;2.55;;;;;;;21.01;45.12;100084.72;4939858;28;20135;-87
2023/06/01 06:57:10;;;;;;;4.15;2.58;;;;;;;21.03;45.39;100073.69;4941998;28;20047;-88
2023/06/01 06:59:37;;;;;;;8.82;2.60;;;;;;;21.06;44.89;100073.28;4953362;28;20050;-87
2023/06/01 07:02:04;;;;;;;4.93;2.60;;;;;;;21.13;44.81;100074.19;4954201;28;20050;-87
2023/06/01 07:04:31;;;;;;;4.93;3.28;;;;;;;21.11;44.93;100084.34;4928922;28;20054;-87
2023/06/01 07:07:00;;;;;;;4.10;2.47;;;;;;;21.13;44.79;100084.16;4941969;28;20045;-87
2023/06/01 07:09:27;;;;;;;3.92;2.50;;;;;;;21.13;44.75;100079.56;4929029;28;20135;-87
2023/06/01 07:11:54;;;;;;;8.52;2.60;;;;;;;21.15;44.08;100080.22;4936493;28;20231;-87
2023/06/01 07:14:20;;;;;;;7.78;2.28;;;;;;;21.19;44.79;100075.25;4949220;28;20055;-87
2023/06/01 07:16:47;;;;;;;5.47;2.38;;;;;;;21.25;45.03;100082.56;4922853;28;20512;-87
2023/06/01 07:19:14;;;;;;;5.43;2.65;;;;;;;21.22;43.90;100073.00;4928341;28;20042;-86
2023/06/01 07:21:41;;;;;;;4.82;2.53;;;;;;;21.27;44.33;100079.66;4938095;28;20277;-87
2023/06/01 07:24:09;;;;;;;5.05;2.35;;;;;;;21.28;44.62;100074.06;4950670;28;20049;-87
2023/06/01 07:26:36;;;;;;;4.30;2.35;;;;;;;21.32;44.22;100069.06;4909647;28;20404;-87
2023/06/01 07:29:03;;;;;;;4.47;3.03;;;;;;;21.31;44.37;100076.34;4938149;28;20116;-87
2023/06/01 07:31:32;;;;;;;4.25;2.22;;;;;;;21.32;44.51;100075.34;4946098;28;20340;-86
2023/06/01 07:33:59;;;;;;;5.88;2.55;;;;;;;21.39;44.68;100080.78;4951414;28;20126;-86
2023/06/01 07:36:27;;;;;;;4.28;2.20;;;;;;;21.42;44.21;100075.84;4954040;28;20127;-87
2023/06/01 07:38:54;;;;;;;5.80;2.28;;;;;;;21.38;44.50;100071.84;4954449;28;20042;-87
2023/06/01 07:41:21;;;;;;;5.03;2.55;;;;;;;21.42;44.39;100064.16;4943510;28;20069;-86
2023/06/01 07:43:47;;;;;;;4.78;2.20;;;;;;;21.46;44.34;100074.38;4953501;28;20049;-87
2023/06/01 07:46:14;;;;;;;5.18;2.33;;;;;;;21.51;44.33;100070.25;4972630;28;20526;-86
2023/06/01 07:48:41;;;;;;;3.65;2.35;;;;;;;21.46;44.15;100063.56;4943173;28;20414;-87
2023/06/01 07:51:08;;;;;;;4.45;2.40;;;;;;;21.51;44.49;100068.38;4982847;28;20585;-87
2023/06/01 07:53:35;;;;;;;6.63;3.10;;;;;;;21.54;44.41;100064.44;4939640;28;20066;-87
2023/06/01 07:56:03;;;;;;;4.68;2.30;;;;;;;21.57;44.15;100067.56;4920280;28;21360;-86
2023/06/01 07:58:30;;;;;;;3.45;2.47;;;;;;;21.63;44.21;100072.16;4922323;28;20046;-87
2023/06/01 08:00:57;;;;;;;3.27;2.50;;;;;;;21.62;44.09;100058.84;4890243;28;1083695;-87
2023/06/01 08:03:25;;;;;;;6.25;2.15;;;;;;;21.66;44.13;100054.72;4937915;28;20459;-87
2023/06/01 08:05:59;;;;;;;4.78;2.80;;;;;;;21.67;45.01;100061.78;4953309;28;20047;-87
2023/06/01 08:08:26;;;;;;;8.18;2.65;;;;;;;21.72;44.55;100072.81;4935404;28;20101;-87
2023/06/01 08:10:55;;;;;;;4.10;2.92;;;;;;;21.73;44.56;100055.56;4953845;28;20046;-87
2023/06/01 08:13:25;;;;;;;4.97;2.55;;;;;;;21.75;44.83;100053.47;4956606;28;20391;-87
2023/06/01 08:15:52;;;;;;;3.90;2.60;;;;;;;21.82;45.17;100058.91;4947738;28;20047;-87
2023/06/01 08:18:19;;;;;;;3.50;2.00;;;;;;;21.83;45.22;100060.56;4929096;28;20096;-87
2023/06/01 08:20:46;;;;;;;5.60;3.03;;;;;;;21.86;44.74;100058.31;4937270;28;20051;-87
2023/06/01 08:23:13;;;;;;;5.13;2.33;;;;;;;21.85;44.71;100045.84;4942371;28;20537;-87
2023/06/01 08:25:41;;;;;;;7.40;2.42;;;;;;;21.88;44.55;100041.91;4933325;28;20094;-86
2023/06/01 08:28:07;;;;;;;3.30;1.90;;;;;;;21.92;44.40;100043.13;4934858;28;20070;-87
2023/06/01 08:30:34;;;;;;;4.03;2.20;;;;;;;21.95;44.14;100040.03;4934415;28;20051;-86
2023/06/01 08:33:02;;;;;;;4.90;2.58;;;;;;;21.97;44.09;100037.94;4933116;28;20062;-87
2023/06/01 08:35:33;;;;;;;4.55;2.40;;;;;;;22.00;44.27;100031.28;4935360;28;20046;-87
2023/06/01 08:38:00;;;;;;;8.18;2.67;;;;;;;22.05;44.02;100039.63;4944164;28;20049;-88
2023/06/01 08:40:27;;;;;;;5.18;2.60;;;;;;;22.07;44.74;100038.38;4958481;28;20054;-87
2023/06/01 08:42:58;;;;;;;6.50;2.70;;;;;;;22.10;44.35;100031.72;4940289;28;20042;-87
2023/06/01 08:45:26;;;;;;;5.22;2.50;;;;;;;22.18;44.25;100038.81;4940887;28;20065;-86
2023/06/01 08:47:54;;;;;;;4.80;2.42;;;;;;;22.15;44.13;100033.81;4934848;28;20046;-87
2023/06/01 08:50:21;;;;;;;4.50;2.15;;;;;;;22.20;44.01;100036.75;4951250;28;20051;-86
2023/06/01 08:52:49;;;;;;;3.58;2.65;;;;;;;22.19;44.01;100038.66;4952322;28;20049;-87
2023/06/01 08:55:16;;;;;;;5.28;2.55;;;;;;;22.25;44.16;100036.97;4921682;28;20074;-87
2023/06/01 08:57:43;;;;;;;4.75;2.60;;;;;;;22.28;44.45;100039.25;4947600;28;20058;-88
2023/06/01 09:00:11;;;;;;;5.68;3.20;;;;;;;22.29;44.09;100028.25;4921840;28;20055;-87
2023/06/01 09:02:42;;;;;;;5.25;2.90;;;;;;;22.32;44.29;100030.53;4951672;28;20047;-87
2023/06/01 09:05:11;;;;;;;4.70;2.65;;;;;;;22.34;43.60;100019.50;4920743;28;20054;-87
2023/06/01 09:07:39;;;;;;;6.63;2.38;;;;;;;22.36;43.46;100022.00;4937204;28;20039;-86
2023/06/01 09:10:07;;;;;;;5.60;2.65;;;;;;;22.38;43.33;100011.81;4940434;28;20119;-88
2023/06/01 09:12:34;;;;;;;3.40;2.78;;;;;;;22.39;43.61;100013.44;4940960;28;20114;-86
2023/06/01 09:15:03;;;;;;;8.57;2.58;;;;;;;22.43;43.55;100012.84;4941943;28;20053;-87
2023/06/01 09:17:31;;;;;;;3.85;2.67;;;;;;;22.44;43.13;100010.94;4940790;28;20054;-86
2023/06/01 09:19:58;;;;;;;3.72;2.22;;;;;;;22.47;43.09;100014.09;4928116;28;20568;-86
2023/06/01 09:22:46;;;;;;;5.35;2.50;;;;;;;22.41;43.33;100004.09;4945602;28;20039;-86
2023/06/01 09:25:14;;;;;;;5.07;2.20;;;;;;;22.54;43.62;100003.25;4932829;28;20039;-87
2023/06/01 09:27:48;;;;;;;5.07;2.78;;;;;;;22.57;42.83;100016.38;4933101;28;20491;-85
2023/06/01 09:30:17;;;;;;;5.30;2.45;;;;;;;22.63;42.84;99998.47;4942504;28;20075;-87
2023/06/01 09:32:50;;;;;;;7.22;2.58;;;;;;;22.61;42.99;100001.38;4966693;28;20303;-87
2023/06/01 09:35:40;;;;;;;4.70;2.35;;;;;;;22.54;42.93;100014.06;4933240;28;20054;-86
2023/06/01 09:38:07;;;;;;;8.30;2.83;;;;;;;22.65;42.33;100008.03;4936446;28;20054;-87
2023/06/01 09:40:35;;;;;;;4.00;2.88;;;;;;;22.67;41.84;100005.97;4932918;28;20062;-88
2023/06/01 09:43:02;;;;;;;6.57;2.53;;;;;;;22.70;41.00;100005.53;4928667;28;20388;-87
2023/06/01 09:45:31;;;;;;;4.78;3.20;;;;;;;22.71;40.95;99999.06;4927855;28;20552;-88
2023/06/01 09:48:17;;;;;;;3.88;2.05;;;;;;;22.68;39.80;99999.50;4939259;28;20053;-88
2023/06/01 09:50:46;;;;;;;4.28;2.40;;;;;;;22.76;41.09;99998.44;4925476;28;20050;-87
2023/06/01 09:53:14;;;;;;;3.83;2.40;;;;;;;22.85;41.54;99996.34;4952233;28;20418;-86
2023/06/01 09:55:58;;;;;;;5.45;1.90;;;;;;;22.72;39.83;99997.22;4948919;28;20106;-87
2023/06/01 09:58:25;;;;;;;2.63;1.90;;;;;;;22.82;39.83;99988.63;4939667;28;20053;-87
2023/06/01 10:00:52;;;;;;;6.50;2.20;;;;;;;22.85;39.40;99989.06;4951781;28;20051;-85
2023/06/01 10:03:21;;;;;;;4.70;2.17;;;;;;;22.86;40.55;99988.00;4952282;28;20051;-88
2023/06/01 10:05:48;;;;;;;4.28;2.45;;;;;;;22.87;40.52;99989.69;4943862;28;20664;-88
2023/06/01 10:08:17;;;;;;;3.63;1.88;;;;;;;22.93;40.80;99988.81;4950664;28;20043;-87
2023/06/01 10:10:46;;;;;;;3.83;2.63;;;;;;;22.94;40.62;99982.34;4958236;28;20462;-88
2023/06/01 10:13:13;;;;;;;4.85;2.17;;;;;;;23.00;40.31;99990.69;4933624;28;20047;-87
2023/06/01 10:15:41;;;;;;;2.33;2.13;;;;;;;22.99;39.47;99986.34;4950925;28;20054;-87
2023/06/01 10:18:08;;;;;;;4.47;2.28;;;;;;;23.02;39.40;99986.72;4938224;28;20038;-87
2023/06/01 10:20:36;;;;;;;6.32;2.30;;;;;;;23.03;39.14;99984.88;4938985;28;20585;-87
2023/06/01 10:23:04;;;;;;;6.90;2.67;;;;;;;23.05;39.27;99975.50;4941922;28;20098;-87
2023/06/01 10:25:42;;;;;;;2.78;2.03;;;;;;;23.04;37.41;99970.28;4944946;28;20039;-85
2023/06/01 10:28:13;;;;;;;2.53;1.80;;;;;;;23.08;37.86;99971.53;4932398;28;20059;-87
2023/06/01 10:30:40;;;;;;;3.50;1.73;;;;;;;23.10;37.96;99975.69;4943792;28;20067;-86
2023/06/01 10:33:07;;;;;;;6.22;2.17;;;;;;;23.10;38.32;99954.00;4930018;28;20157;-86
2023/06/01 10:35:43;;;;;;;5.68;2.00;;;;;;;23.10;36.97;99964.84;4939729;28;20043;-87
2023/06/01 10:38:09;;;;;;;4.07;1.80;;;;;;;23.14;37.93;99963.34;4959815;28;20047;-87
2023/06/01 10:40:37;;;;;;;2.38;1.60;;;;;;;23.19;37.73;99960.00;4950677;28;20055;-88
2023/06/01 10:43:05;;;;;;;2.15;1.40;;;;;;;23.19;38.30;99954.56;4926857;28;20399;-87
2023/06/01 10:45:40;;;;;;;4.00;1.88;;;;;;;23.17;37.78;99952.06;4960386;28;20133;-87
2023/06/01 10:48:11;;;;;;;3.42;2.03;;;;;;;23.23;38.07;99949.56;4940796;28;20159;-86
2023/06/01 10:50:39;;;;;;;4.60;1.73;;;;;;;23.25;37.78;99942.88;4942298;28;20085;-87
2023/06/01 10:53:26;;;;;;;4.53;1.60;;;;;;;23.23;37.40;99946.84;4936531;28;20051;-87
2023/06/01 10:56:17;;;;;;;2.63;1.55;;;;;;;23.23;36.94;99936.00;4946901;28;20581;-87
2023/06/01 10:58:44;;;;;;;2.60;1.95;;;;;;;23.32;37.41;99935.53;4957693;28;20506;-87
2023/06/01 11:01:18;;;;;;;4.28;1.90;;;;;;;23.31;36.44;99930.34;4931930;28;20057;-88
2023/06/01 11:03:46;;;;;;;4.13;1.80;;;;;;;23.35;37.08;99937.00;4963607;28;20145;-88
2023/06/01 11:06:28;;;;;;;5.82;1.83;;;;;;;23.32;35.58;99940.13;4946807;28;20129;-87
2023/06/01 11:08:56;;;;;;;2.90;2.05;;;;;;;23.39;36.69;99938.22;4971915;28;20046;-87
2023/06/01 11:11:48;;;;;;;3.58;1.75;;;;;;;23.32;36.39;99924.72;4955922;28;20573;-87
2023/06/01 11:14:16;;;;;;;5.57;2.10;;;;;;;23.44;36.60;99918.63;4942641;28;20050;-86
2023/06/01 11:16:45;;;;;;;5.82;2.08;;;;;;;23.45;37.00;99922.97;4936007;28;20290;-87
2023/06/01 11:19:27;;;;;;;2.63;1.85;;;;;;;23.43;36.88;99928.59;4945589;28;20174;-87
2023/06/01 11:22:04;;;;;;;4.65;1.85;;;;;;;23.47;37.07;99927.13;4943329;28;20087;-87
2023/06/01 11:24:35;;;;;;;2.15;1.73;;;;;;;23.52;36.97;99921.06;4960030;28;20417;-87
2023/06/01 11:27:08;;;;;;;4.75;1.90;;;;;;;23.55;36.98;99915.19;4958442;28;20051;-87
2023/06/01 11:29:35;;;;;;;2.70;1.83;;;;;;;23.58;37.07;99915.59;4962809;28;20047;-88
2023/06/01 11:32:05;;;;;;;3.17;2.00;;;;;;;23.61;36.40;99915.16;4939041;28;20536;-87
2023/06/01 11:34:41;;;;;;;6.20;1.95;;;;;;;23.59;36.04;99913.72;4945811;28;20047;-87
2023/06/01 11:37:15;;;;;;;3.97;1.85;;;;;;;23.60;35.65;99912.66;4962597;28;20047;-87